createdAt,value
2024-02-28T00:00:57.039Z,96091.81
2024-02-28T00:02:08.805Z,96097.97
2024-02-28T00:03:20.567Z,96100.91
2024-02-28T00:04:32.307Z,96098.00
2024-02-28T00:05:44.028Z,96104.13
2024-02-28T00:06:55.740Z,96099.56
2024-02-28T00:08:07.526Z,96110.13
2024-02-28T00:09:19.798Z,96106.03
2024-02-28T00:10:31.435Z,96106.75
2024-02-28T00:11:46.914Z,96111.00
2024-02-28T00:12:59.132Z,96102.19
2024-02-28T00:14:10.889Z,96106.28
2024-02-28T00:15:22.720Z,96106.16
2024-02-28T00:16:34.796Z,96104.06
2024-02-28T00:17:46.503Z,96101.28
2024-02-28T00:18:58.246Z,96097.91
2024-02-28T00:20:11.020Z,96102.47
2024-02-28T00:21:22.777Z,96103.22
2024-02-28T00:22:34.428Z,96105.09
2024-02-28T00:23:46.120Z,96108.16
2024-02-28T00:24:57.917Z,96098.50
2024-02-28T00:26:09.602Z,96101.88
2024-02-28T00:27:21.280Z,96105.69
2024-02-28T00:28:32.968Z,96108.47
2024-02-28T00:29:44.616Z,96102.16
2024-02-28T00:30:56.343Z,96105.56
2024-02-28T00:32:08.089Z,96105.69
2024-02-28T00:33:19.806Z,96105.88
2024-02-28T00:34:31.540Z,96108.81
2024-02-28T00:35:43.437Z,96109.53
2024-02-28T00:36:56.422Z,96109.09
2024-02-28T00:38:08.626Z,96108.69
2024-02-28T00:39:20.414Z,96106.78
2024-02-28T00:40:32.205Z,96103.84
2024-02-28T00:41:43.972Z,96103.97
2024-02-28T00:42:56.369Z,96110.88
2024-02-28T00:44:08.056Z,96107.97
2024-02-28T00:45:19.754Z,96101.66
2024-02-28T00:46:31.462Z,96110.88
2024-02-28T00:47:43.422Z,96106.78
2024-02-28T00:48:55.147Z,96101.78
2024-02-28T00:50:06.971Z,96111.78
2024-02-28T00:51:18.658Z,96112.09
2024-02-28T00:52:31.868Z,96120.75
2024-02-28T00:53:44.278Z,96105.16
2024-02-28T00:54:56.021Z,96111.16
2024-02-28T00:56:07.956Z,96110.91
2024-02-28T00:57:19.723Z,96113.09
2024-02-28T00:58:31.594Z,96110.31
2024-02-28T00:59:44.192Z,96110.16
2024-02-28T01:00:56.006Z,96113.28
2024-02-28T01:02:07.748Z,96113.28
2024-02-28T01:03:19.700Z,96112.53
2024-02-28T01:04:31.421Z,96118.13
2024-02-28T01:05:43.446Z,96120.00
2024-02-28T01:06:55.119Z,96109.75
2024-02-28T01:08:07.504Z,96114.44
2024-02-28T01:09:20.356Z,96116.22
2024-02-28T01:10:32.122Z,96113.13
2024-02-28T01:11:43.861Z,96117.50
2024-02-28T01:12:55.589Z,96116.34
2024-02-28T01:14:07.591Z,96114.88
2024-02-28T01:15:19.713Z,96112.66
2024-02-28T01:16:31.502Z,96108.84
2024-02-28T01:17:43.220Z,96108.41
2024-02-28T01:18:55.264Z,96110.63
2024-02-28T01:20:09.599Z,96104.63
2024-02-28T01:21:21.254Z,96115.47
2024-02-28T01:22:32.956Z,96112.50
2024-02-28T01:23:44.600Z,96112.97
2024-02-28T01:24:56.355Z,96115.59
2024-02-28T01:26:08.060Z,96121.91
2024-02-28T01:27:19.774Z,96119.44
2024-02-28T01:28:31.423Z,96113.09
2024-02-28T01:29:43.112Z,96121.19
2024-02-28T01:30:54.849Z,96121.19
2024-02-28T01:32:06.682Z,96122.66
2024-02-28T01:33:18.355Z,96116.63
2024-02-28T01:34:30.048Z,96119.53
2024-02-28T01:35:41.867Z,96123.53
2024-02-28T01:36:53.606Z,96119.41
2024-02-28T01:38:05.482Z,96122.25
2024-02-28T01:39:17.355Z,96120.75
2024-02-28T01:40:29.020Z,96125.28
2024-02-28T01:41:40.784Z,96127.53
2024-02-28T01:42:52.527Z,96128.81
2024-02-28T01:44:04.315Z,96129.25
2024-02-28T01:45:16.134Z,96128.09
2024-02-28T01:46:28.912Z,96127.34
2024-02-28T01:47:41.034Z,96127.66
2024-02-28T01:48:53.956Z,96130.91
2024-02-28T01:50:06.554Z,96135.00
2024-02-28T01:51:18.949Z,96124.81
2024-02-28T01:52:31.437Z,96135.28
2024-02-28T01:53:43.585Z,96135.16
2024-02-28T01:54:55.678Z,96131.59
2024-02-28T01:56:07.974Z,96133.22
2024-02-28T01:57:19.719Z,96138.38
2024-02-28T01:58:31.682Z,96135.41
2024-02-28T01:59:43.590Z,96136.00
2024-02-28T02:00:55.337Z,96133.94
2024-02-28T02:02:07.593Z,96128.19
2024-02-28T02:03:19.289Z,96125.44
2024-02-28T02:04:31.038Z,96134.25
2024-02-28T02:05:43.119Z,96128.81
2024-02-28T02:06:55.520Z,96131.75
2024-02-28T02:08:07.292Z,96127.34
2024-02-28T02:09:18.988Z,96125.00
2024-02-28T02:10:30.763Z,96130.00
2024-02-28T02:11:42.398Z,96123.72
2024-02-28T02:12:54.335Z,96117.69
2024-02-28T02:14:06.157Z,96125.50
2024-02-28T02:15:17.983Z,96127.28
2024-02-28T02:16:29.873Z,96130.69
2024-02-28T02:17:41.558Z,96123.22
2024-02-28T02:18:53.623Z,96125.13
2024-02-28T02:20:07.162Z,96133.91
2024-02-28T02:21:21.458Z,96129.19
2024-02-28T02:22:41.694Z,96133.75
2024-02-28T02:23:53.461Z,96130.69
2024-02-28T02:25:05.840Z,96135.53
2024-02-28T02:26:17.596Z,96133.59
2024-02-28T02:27:29.225Z,96135.88
2024-02-28T02:28:40.954Z,96131.53
2024-02-28T02:29:52.565Z,96133.59
2024-02-28T02:31:04.442Z,96133.88
2024-02-28T02:32:16.132Z,96131.72
2024-02-28T02:33:27.826Z,96140.53
2024-02-28T02:34:39.472Z,96138.16
2024-02-28T02:35:51.244Z,96134.94
2024-02-28T02:37:03.158Z,96145.81
2024-02-28T02:38:14.884Z,96144.03
2024-02-28T02:39:26.561Z,96142.72
2024-02-28T02:40:38.206Z,96146.09
2024-02-28T02:41:49.925Z,96148.00
2024-02-28T02:43:01.625Z,96148.00
2024-02-28T02:44:13.308Z,96146.34
2024-02-28T02:45:25.063Z,96144.72
2024-02-28T02:46:36.806Z,96148.38
2024-02-28T02:47:48.439Z,96147.47
2024-02-28T02:49:00.145Z,96140.88
2024-02-28T02:50:11.944Z,96144.13
2024-02-28T02:51:23.609Z,96146.16
2024-02-28T02:52:35.322Z,96152.78
2024-02-28T02:53:47.102Z,96148.78
2024-02-28T02:54:59.017Z,96152.16
2024-02-28T02:56:10.748Z,96155.06
2024-02-28T02:57:22.453Z,96148.16
2024-02-28T02:58:34.141Z,96152.03
2024-02-28T02:59:45.856Z,96153.63
2024-02-28T03:00:57.690Z,96160.66
2024-02-28T03:02:09.476Z,96159.03
2024-02-28T03:03:21.118Z,96152.16
2024-02-28T03:04:32.943Z,96150.22
2024-02-28T03:05:44.667Z,96148.97
2024-02-28T03:06:56.355Z,96155.44
2024-02-28T03:08:08.053Z,96157.97
2024-02-28T03:09:19.810Z,96156.81
2024-02-28T03:10:31.506Z,96159.75
2024-02-28T03:11:43.195Z,96161.34
2024-02-28T03:12:54.916Z,96149.63
2024-02-28T03:14:06.622Z,96162.34
2024-02-28T03:15:18.312Z,96158.06
2024-02-28T03:16:30.361Z,96152.88
2024-02-28T03:17:42.763Z,96152.34
2024-02-28T03:18:55.729Z,96162.50
2024-02-28T03:20:08.812Z,96154.03
2024-02-28T03:21:21.813Z,96157.09
2024-02-28T03:22:33.496Z,96162.59
2024-02-28T03:23:45.174Z,96159.94
2024-02-28T03:24:57.031Z,96159.66
2024-02-28T03:26:08.794Z,96164.59
2024-02-28T03:27:20.601Z,96161.38
2024-02-28T03:28:32.241Z,96165.19
2024-02-28T03:29:43.947Z,96159.94
2024-02-28T03:30:55.785Z,96169.22
2024-02-28T03:32:07.760Z,96168.38
2024-02-28T03:33:19.446Z,96172.25
2024-02-28T03:34:31.243Z,96168.94
2024-02-28T03:35:42.980Z,96174.06
2024-02-28T03:36:54.663Z,96169.00
2024-02-28T03:38:06.438Z,96169.88
2024-02-28T03:39:18.470Z,96173.38
2024-02-28T03:40:30.180Z,96164.06
2024-02-28T03:41:41.833Z,96170.66
2024-02-28T03:42:53.558Z,96172.44
2024-02-28T03:44:05.909Z,96169.34
2024-02-28T03:45:17.743Z,96168.44
2024-02-28T03:46:29.397Z,96169.03
2024-02-28T03:47:41.087Z,96169.63
2024-02-28T03:48:52.825Z,96171.38
2024-02-28T03:50:05.029Z,96165.56
2024-02-28T03:51:16.761Z,96164.09
2024-02-28T03:52:28.433Z,96174.13
2024-02-28T03:53:42.035Z,96170.44
2024-02-28T03:54:53.683Z,96171.94
2024-02-28T03:56:05.614Z,96178.16
2024-02-28T03:57:17.377Z,96164.66
2024-02-28T03:58:29.705Z,96167.69
2024-02-28T03:59:44.174Z,96170.22
2024-02-28T04:00:56.689Z,96168.44
2024-02-28T04:02:08.472Z,96170.22
2024-02-28T04:03:20.194Z,96171.38
2024-02-28T04:04:31.893Z,96165.50
2024-02-28T04:05:43.555Z,96173.88
2024-02-28T04:06:55.584Z,96173.72
2024-02-28T04:08:07.578Z,96176.03
2024-02-28T04:09:19.269Z,96176.56
2024-02-28T04:10:30.955Z,96180.00
2024-02-28T04:11:44.176Z,96176.00
2024-02-28T04:12:55.935Z,96175.19
2024-02-28T04:14:07.601Z,96178.03
2024-02-28T04:15:19.431Z,96175.06
2024-02-28T04:16:31.112Z,96176.75
2024-02-28T04:17:42.862Z,96170.38
2024-02-28T04:18:54.549Z,96171.97
2024-02-28T04:20:13.391Z,96174.72
2024-02-28T04:21:25.100Z,96182.38
2024-02-28T04:22:36.786Z,96178.19
2024-02-28T04:23:48.512Z,96176.47
2024-02-28T04:25:02.709Z,96180.88
2024-02-28T04:26:14.353Z,96179.53
2024-02-28T04:27:26.058Z,96174.38
2024-02-28T04:28:37.714Z,96176.91
2024-02-28T04:29:49.393Z,96178.50
2024-02-28T04:31:01.100Z,96182.19
2024-02-28T04:32:12.844Z,96182.59
2024-02-28T04:33:24.675Z,96177.00
2024-02-28T04:34:37.858Z,96179.31
2024-02-28T04:35:49.591Z,96184.72
2024-02-28T04:37:01.294Z,96186.56
2024-02-28T04:38:13.031Z,96180.63
2024-02-28T04:39:24.734Z,96181.88
2024-02-28T04:40:36.869Z,96188.78
2024-02-28T04:41:48.490Z,96186.19
2024-02-28T04:43:00.241Z,96189.44
2024-02-28T04:44:12.025Z,96192.28
2024-02-28T04:45:23.801Z,96189.47
2024-02-28T04:46:35.983Z,96180.25
2024-02-28T04:47:47.732Z,96181.44
2024-02-28T04:48:59.481Z,96187.59
2024-02-28T04:50:11.648Z,96189.47
2024-02-28T04:51:23.327Z,96194.03
2024-02-28T04:52:35.082Z,96193.31
2024-02-28T04:53:46.775Z,96188.88
2024-02-28T04:54:58.471Z,96187.72
2024-02-28T04:56:10.505Z,96183.91
2024-02-28T04:57:22.340Z,96190.47
2024-02-28T04:58:34.002Z,96191.47
2024-02-28T04:59:47.838Z,96195.59
2024-02-28T05:00:59.693Z,96195.59
2024-02-28T05:02:11.453Z,96197.34
2024-02-28T05:03:23.725Z,96204.56
2024-02-28T05:04:35.410Z,96203.94
2024-02-28T05:05:47.113Z,96203.56
2024-02-28T05:06:58.946Z,96206.22
2024-02-28T05:08:10.720Z,96200.06
2024-02-28T05:09:22.519Z,96206.09
2024-02-28T05:10:35.496Z,96209.47
2024-02-28T05:11:47.163Z,96210.53
2024-02-28T05:12:59.042Z,96211.69
2024-02-28T05:14:11.883Z,96209.16
2024-02-28T05:15:24.126Z,96210.94
2024-02-28T05:16:35.851Z,96210.09
2024-02-28T05:17:47.522Z,96208.31
2024-02-28T05:18:59.264Z,96214.13
2024-02-28T05:20:11.575Z,96214.81
2024-02-28T05:21:23.554Z,96211.72
2024-02-28T05:22:35.226Z,96216.28
2024-02-28T05:23:46.857Z,96221.56
2024-02-28T05:24:58.551Z,96222.00
2024-02-28T05:26:10.339Z,96217.88
2024-02-28T05:27:22.044Z,96220.09
2024-02-28T05:28:37.049Z,96226.09
2024-02-28T05:29:49.417Z,96224.25
2024-02-28T05:31:22.612Z,96228.44
2024-02-28T05:32:34.346Z,96224.25
2024-02-28T05:33:45.984Z,96228.66
2024-02-28T05:34:57.625Z,96231.50
2024-02-28T05:36:10.837Z,96229.50
2024-02-28T05:37:22.454Z,96230.69
2024-02-28T05:38:34.118Z,96238.06
2024-02-28T05:39:45.781Z,96243.13
2024-02-28T05:40:57.458Z,96241.81
2024-02-28T05:42:09.080Z,96238.19
2024-02-28T05:43:21.164Z,96238.09
2024-02-28T05:44:32.968Z,96237.66
2024-02-28T05:45:44.783Z,96243.38
2024-02-28T05:46:57.020Z,96245.16
2024-02-28T05:48:08.736Z,96249.09
2024-02-28T05:49:20.548Z,96253.94
2024-02-28T05:50:34.046Z,96255.81
2024-02-28T05:51:45.913Z,96252.50
2024-02-28T05:52:57.646Z,96252.63
2024-02-28T05:54:09.364Z,96254.69
2024-02-28T05:55:22.660Z,96249.69
2024-02-28T05:56:34.396Z,96260.69
2024-02-28T05:57:46.067Z,96255.78
2024-02-28T05:58:57.754Z,96254.69
2024-02-28T06:00:11.407Z,96265.28
2024-02-28T06:01:23.291Z,96265.22
2024-02-28T06:02:35.485Z,96261.06
2024-02-28T06:03:49.125Z,96259.50
2024-02-28T06:05:00.812Z,96265.28
2024-02-28T06:06:12.548Z,96267.88
2024-02-28T06:07:25.412Z,96268.53
2024-02-28T06:08:40.146Z,96267.28
2024-02-28T06:09:51.881Z,96278.63
2024-02-28T06:11:04.155Z,96281.25
2024-02-28T06:12:15.946Z,96278.13
2024-02-28T06:13:29.346Z,96272.31
2024-02-28T06:14:41.099Z,96282.47
2024-02-28T06:15:52.846Z,96274.56
2024-02-28T06:17:04.553Z,96275.19
2024-02-28T06:18:16.302Z,96277.09
2024-02-28T06:19:28.075Z,96278.34
2024-02-28T06:20:39.836Z,96281.84
2024-02-28T06:21:52.421Z,96278.47
2024-02-28T06:23:10.447Z,96283.97
2024-02-28T06:24:27.787Z,96283.44
2024-02-28T06:25:39.488Z,96280.63
2024-02-28T06:26:51.152Z,96285.63
2024-02-28T06:28:06.785Z,96282.91
2024-02-28T06:29:18.459Z,96283.44
2024-02-28T06:30:30.135Z,96282.22
2024-02-28T06:31:41.768Z,96289.84
2024-02-28T06:32:53.516Z,96289.34
2024-02-28T06:34:05.327Z,96282.53
2024-02-28T06:35:17.716Z,96283.44
2024-02-28T06:36:29.353Z,96291.28
2024-02-28T06:37:41.081Z,96285.25
2024-02-28T06:38:52.763Z,96284.81
2024-02-28T06:40:11.162Z,96287.47
2024-02-28T06:41:22.805Z,96283.81
2024-02-28T06:42:36.494Z,96285.19
2024-02-28T06:43:48.265Z,96287.84
2024-02-28T06:45:00.045Z,96286.66
2024-02-28T06:46:12.521Z,96288.84
2024-02-28T06:47:27.122Z,96286.25
2024-02-28T06:48:38.911Z,96292.31
2024-02-28T06:49:50.997Z,96291.78
2024-02-28T06:51:02.758Z,96296.59
2024-02-28T06:52:15.292Z,96288.31
2024-02-28T06:53:27.577Z,96290.50
2024-02-28T06:54:39.326Z,96278.91
2024-02-28T06:55:51.058Z,96285.50
2024-02-28T06:57:03.633Z,96290.34
2024-02-28T06:58:15.800Z,96293.59
2024-02-28T06:59:30.231Z,96292.94
2024-02-28T07:00:41.913Z,96298.34
2024-02-28T07:01:53.610Z,96296.75
2024-02-28T07:03:05.637Z,96294.78
2024-02-28T07:04:18.212Z,96291.41
2024-02-28T07:05:29.837Z,96299.78
2024-02-28T07:06:41.653Z,96301.31
2024-02-28T07:07:53.281Z,96307.66
2024-02-28T07:09:05.035Z,96300.38
2024-02-28T07:10:16.720Z,96306.19
2024-02-28T07:11:28.465Z,96302.50
2024-02-28T07:12:40.240Z,96307.75
2024-02-28T07:13:51.932Z,96304.97
2024-02-28T07:15:03.974Z,96305.28
2024-02-28T07:16:15.647Z,96302.59
2024-02-28T07:17:27.377Z,96304.19
2024-02-28T07:18:39.044Z,96297.47
2024-02-28T07:19:50.773Z,96302.47
2024-02-28T07:21:02.663Z,96303.16
2024-02-28T07:22:14.904Z,96307.06
2024-02-28T07:23:26.600Z,96300.03
2024-02-28T07:24:38.328Z,96308.66
2024-02-28T07:25:49.951Z,96304.41
2024-02-28T07:27:01.609Z,96303.53
2024-02-28T07:28:13.312Z,96306.84
2024-02-28T07:29:25.002Z,96299.28
2024-02-28T07:30:37.374Z,96303.53
2024-02-28T07:31:51.003Z,96307.06
2024-02-28T07:33:02.699Z,96305.00
2024-02-28T07:34:15.003Z,96298.81
2024-02-28T07:35:26.850Z,96302.34
2024-02-28T07:36:38.530Z,96294.41
2024-02-28T07:37:50.247Z,96299.13
2024-02-28T07:39:01.901Z,96300.59
2024-02-28T07:40:14.011Z,96302.16
2024-02-28T07:41:25.649Z,96301.88
2024-02-28T07:42:37.637Z,96296.22
2024-02-28T07:43:49.247Z,96293.38
2024-02-28T07:45:00.892Z,96291.34
2024-02-28T07:46:13.072Z,96293.81
2024-02-28T07:47:24.988Z,96301.63
2024-02-28T07:48:36.716Z,96294.81
2024-02-28T07:49:48.398Z,96306.94
2024-02-28T07:51:00.022Z,96297.63
2024-02-28T07:52:11.789Z,96304.84
2024-02-28T07:53:23.789Z,96309.69
2024-02-28T07:54:35.466Z,96310.88
2024-02-28T07:55:47.159Z,96308.72
2024-02-28T07:56:58.792Z,96305.78
2024-02-28T07:58:10.757Z,96305.78
2024-02-28T07:59:22.377Z,96304.88
2024-02-28T08:00:37.282Z,96305.63
2024-02-28T08:01:49.350Z,96302.09
2024-02-28T08:03:01.312Z,96304.75
2024-02-28T08:04:13.223Z,96304.16
2024-02-28T08:05:25.131Z,96299.38
2024-02-28T08:06:39.189Z,96301.28
2024-02-28T08:07:50.872Z,96299.84
2024-02-28T08:09:03.832Z,96292.50
2024-02-28T08:10:16.111Z,96294.97
2024-02-28T08:11:27.943Z,96299.81
2024-02-28T08:12:39.658Z,96302.78
2024-02-28T08:13:51.364Z,96295.91
2024-02-28T08:15:04.066Z,96303.13
2024-02-28T08:16:16.029Z,96291.72
2024-02-28T08:17:27.869Z,96305.78
2024-02-28T08:18:39.570Z,96300.47
2024-02-28T08:19:51.572Z,96302.03
2024-02-28T08:21:04.196Z,96290.28
2024-02-28T08:22:15.931Z,96300.38
2024-02-28T08:23:27.620Z,96294.06
2024-02-28T08:24:39.611Z,96294.63
2024-02-28T08:25:51.360Z,96299.72
2024-02-28T08:27:02.992Z,96302.94
2024-02-28T08:28:15.015Z,96298.81
2024-02-28T08:29:28.514Z,96296.56
2024-02-28T08:30:40.187Z,96292.91
2024-02-28T08:31:52.613Z,96293.63
2024-02-28T08:33:04.554Z,96297.59
2024-02-28T08:34:16.403Z,96295.19
2024-02-28T08:35:28.120Z,96294.44
2024-02-28T08:36:39.822Z,96292.31
2024-02-28T08:37:51.554Z,96291.06
2024-02-28T08:39:05.644Z,96292.59
2024-02-28T08:40:17.380Z,96297.84
2024-02-28T08:41:29.031Z,96292.84
2024-02-28T08:42:40.819Z,96295.00
2024-02-28T08:43:52.505Z,96285.78
2024-02-28T08:45:04.843Z,96291.63
2024-02-28T08:46:19.622Z,96289.13
2024-02-28T08:47:31.416Z,96285.81
2024-02-28T08:48:43.692Z,96284.03
2024-02-28T08:49:55.371Z,96284.41
2024-02-28T08:51:07.021Z,96294.44
2024-02-28T08:52:18.679Z,96293.25
2024-02-28T08:53:30.341Z,96289.25
2024-02-28T08:54:42.083Z,96290.28
2024-02-28T08:55:53.708Z,96288.69
2024-02-28T08:57:05.594Z,96292.16
2024-02-28T08:58:19.015Z,96282.75
2024-02-28T08:59:30.707Z,96279.25
2024-02-28T09:00:42.484Z,96291.84
2024-02-28T09:01:54.288Z,96285.59
2024-02-28T09:03:06.299Z,96276.16
2024-02-28T09:04:18.142Z,96281.75
2024-02-28T09:05:29.953Z,96281.97
2024-02-28T09:06:42.368Z,96282.25
2024-02-28T09:07:56.114Z,96277.03
2024-02-28T09:09:08.023Z,96269.25
2024-02-28T09:10:25.561Z,96282.41
2024-02-28T09:11:37.553Z,96280.44
2024-02-28T09:12:49.360Z,96283.81
2024-02-28T09:14:01.103Z,96278.13
2024-02-28T09:15:12.730Z,96282.72
2024-02-28T09:16:24.394Z,96283.63
2024-02-28T09:17:36.065Z,96279.06
2024-02-28T09:18:47.794Z,96278.66
2024-02-28T09:20:02.360Z,96276.75
2024-02-28T09:21:14.345Z,96285.25
2024-02-28T09:22:26.503Z,96277.00
2024-02-28T09:23:38.177Z,96274.81
2024-02-28T09:24:50.241Z,96277.00
2024-02-28T09:26:05.816Z,96278.94
2024-02-28T09:27:18.973Z,96281.69
2024-02-28T09:28:30.612Z,96284.44
2024-02-28T09:29:42.515Z,96290.09
2024-02-28T09:30:54.247Z,96280.91
2024-02-28T09:32:06.377Z,96280.78
2024-02-28T09:33:20.768Z,96286.84
2024-02-28T09:34:32.662Z,96287.97
2024-02-28T09:35:44.462Z,96279.66
2024-02-28T09:36:56.152Z,96285.19
2024-02-28T09:38:07.813Z,96282.38
2024-02-28T09:39:19.685Z,96284.91
2024-02-28T09:40:32.122Z,96288.84
2024-02-28T09:41:44.009Z,96285.28
2024-02-28T09:43:01.793Z,96284.03
2024-02-28T09:44:15.386Z,96275.69
2024-02-28T09:45:28.285Z,96279.28
2024-02-28T09:46:40.240Z,96276.84
2024-02-28T09:47:51.924Z,96274.59
2024-02-28T09:49:06.813Z,96268.25
2024-02-28T09:50:20.371Z,96271.03
2024-02-28T09:51:38.510Z,96276.97
2024-02-28T09:52:58.056Z,96270.00
2024-02-28T09:54:13.971Z,96272.69
2024-02-28T09:55:26.016Z,96271.59
2024-02-28T09:56:37.702Z,96262.34
2024-02-28T09:57:50.843Z,96263.75
2024-02-28T09:59:04.432Z,96262.34
2024-02-28T10:00:20.848Z,96256.78
2024-02-28T10:01:38.426Z,96259.38
2024-02-28T10:02:51.903Z,96252.84
2024-02-28T10:04:04.192Z,96254.34
2024-02-28T10:05:17.121Z,96252.94
2024-02-28T10:06:28.965Z,96250.00
2024-02-28T10:07:40.680Z,96243.69
2024-02-28T10:08:52.704Z,96250.13
2024-02-28T10:10:05.226Z,96244.78
2024-02-28T10:11:24.043Z,96249.31
2024-02-28T10:12:35.893Z,96247.75
2024-02-28T10:13:48.953Z,96252.34
2024-02-28T10:15:01.753Z,96241.50
2024-02-28T10:16:13.453Z,96247.59
2024-02-28T10:17:26.922Z,96243.09
2024-02-28T10:18:39.208Z,96232.13
2024-02-28T10:19:53.222Z,96235.50
2024-02-28T10:21:05.334Z,96235.72
2024-02-28T10:22:17.064Z,96234.81
2024-02-28T10:23:28.896Z,96232.72
2024-02-28T10:24:40.656Z,96223.56
2024-02-28T10:25:57.383Z,96223.81
2024-02-28T10:27:09.986Z,96230.16
2024-02-28T10:28:22.540Z,96221.91
2024-02-28T10:29:34.436Z,96221.97
2024-02-28T10:30:46.176Z,96224.19
2024-02-28T10:31:57.897Z,96219.38
2024-02-28T10:33:15.251Z,96216.09
2024-02-28T10:34:27.215Z,96212.41
2024-02-28T10:35:39.024Z,96205.63
2024-02-28T10:36:51.136Z,96207.16
2024-02-28T10:38:02.845Z,96209.09
2024-02-28T10:39:15.600Z,96198.69
2024-02-28T10:40:28.883Z,96200.19
2024-02-28T10:41:41.031Z,96203.81
2024-02-28T10:42:52.666Z,96201.94
2024-02-28T10:44:04.478Z,96195.91
2024-02-28T10:45:25.550Z,96199.06
2024-02-28T10:46:50.497Z,96194.47
2024-02-28T10:48:03.309Z,96188.16
2024-02-28T10:49:14.986Z,96189.13
2024-02-28T10:50:26.748Z,96184.00
2024-02-28T10:51:38.711Z,96181.84
2024-02-28T10:52:55.594Z,96176.94
2024-02-28T10:54:11.192Z,96179.63
2024-02-28T10:55:25.288Z,96171.59
2024-02-28T10:56:37.263Z,96167.44
2024-02-28T10:57:57.535Z,96162.34
2024-02-28T10:59:14.316Z,96169.13
2024-02-28T11:00:26.143Z,96163.53
2024-02-28T11:01:39.180Z,96164.00
2024-02-28T11:02:50.970Z,96155.50
2024-02-28T11:04:24.696Z,96158.66
2024-02-28T11:05:40.474Z,96159.63
2024-02-28T11:06:58.430Z,96153.75
2024-02-28T11:08:11.977Z,96147.44
2024-02-28T11:09:25.465Z,96138.19
2024-02-28T11:10:41.300Z,96137.94
2024-02-28T11:11:53.562Z,96133.78
2024-02-28T11:13:05.204Z,96136.19
2024-02-28T11:14:17.347Z,96134.72
2024-02-28T11:15:29.107Z,96125.22
2024-02-28T11:16:43.326Z,96123.03
2024-02-28T11:17:55.665Z,96129.53
2024-02-28T11:19:07.341Z,96117.97
2024-02-28T11:20:19.781Z,96126.22
2024-02-28T11:21:36.146Z,96121.63
2024-02-28T11:22:48.040Z,96121.78
2024-02-28T11:24:03.123Z,96114.38
2024-02-28T11:25:14.826Z,96113.91
2024-02-28T11:26:27.302Z,96116.00
2024-02-28T11:27:51.475Z,96117.13
2024-02-28T11:29:03.278Z,96114.31
2024-02-28T11:30:15.934Z,96099.94
2024-02-28T11:31:27.638Z,96104.31
2024-02-28T11:32:39.362Z,96103.25
2024-02-28T11:33:51.599Z,96097.94
2024-02-28T11:35:03.415Z,96099.41
2024-02-28T11:36:15.912Z,96097.94
2024-02-28T11:37:27.570Z,96096.41
2024-02-28T11:38:40.191Z,96089.06
2024-02-28T11:39:52.297Z,96090.97
2024-02-28T11:41:04.821Z,96093.13
2024-02-28T11:42:17.813Z,96092.69
2024-02-28T11:43:30.677Z,96089.50
2024-02-28T11:44:43.030Z,96093.63
2024-02-28T11:45:56.510Z,96080.84
2024-02-28T11:47:12.798Z,96085.22
2024-02-28T11:48:25.542Z,96079.13
2024-02-28T11:49:38.726Z,96087.59
2024-02-28T11:50:52.322Z,96086.31
2024-02-28T11:52:05.441Z,96078.88
2024-02-28T11:53:17.870Z,96076.44
2024-02-28T11:54:29.563Z,96081.34
2024-02-28T11:55:43.217Z,96076.19
2024-02-28T11:56:57.432Z,96077.31
2024-02-28T11:58:10.223Z,96075.56
2024-02-28T11:59:21.829Z,96069.44
2024-02-28T12:00:34.325Z,96068.56
2024-02-28T12:01:47.838Z,96069.78
2024-02-28T12:03:08.634Z,96065.88
2024-02-28T12:04:20.270Z,96066.09
2024-02-28T12:05:31.879Z,96061.13
2024-02-28T12:06:44.119Z,96070.44
2024-02-28T12:07:57.269Z,96056.84
2024-02-28T12:09:10.665Z,96059.28
2024-02-28T12:10:23.913Z,96054.84
2024-02-28T12:11:37.385Z,96058.06
2024-02-28T12:12:51.274Z,96061.81
2024-02-28T12:14:12.566Z,96054.03
2024-02-28T12:15:24.267Z,96052.56
2024-02-28T12:16:39.048Z,96049.44
2024-02-28T12:17:50.738Z,96047.16
2024-02-28T12:19:05.319Z,96049.34
2024-02-28T12:20:16.966Z,96051.97
2024-02-28T12:21:28.688Z,96044.41
2024-02-28T12:22:40.308Z,96040.75
2024-02-28T12:23:52.011Z,96051.56
2024-02-28T12:25:05.818Z,96041.81
2024-02-28T12:26:21.279Z,96046.13
2024-02-28T12:27:32.939Z,96045.63
2024-02-28T12:28:44.667Z,96039.28
2024-02-28T12:29:56.353Z,96040.22
2024-02-28T12:31:11.234Z,96052.41
2024-02-28T12:32:22.925Z,96042.78
2024-02-28T12:33:35.134Z,96045.09
2024-02-28T12:34:46.763Z,96052.34
2024-02-28T12:35:58.441Z,96047.06
2024-02-28T12:37:10.239Z,96053.03
2024-02-28T12:38:23.755Z,96048.22
2024-02-28T12:39:35.924Z,96041.72
2024-02-28T12:40:47.796Z,96037.28
2024-02-28T12:41:59.636Z,96043.69
2024-02-28T12:43:11.312Z,96042.59
2024-02-28T12:44:23.013Z,96044.69
2024-02-28T12:45:34.787Z,96037.66
2024-02-28T12:46:46.457Z,96043.31
2024-02-28T12:47:58.611Z,96038.75
2024-02-28T12:49:11.045Z,96034.41
2024-02-28T16:10:49.087Z,96057.91
2024-02-28T16:12:00.853Z,96063.44
2024-02-28T16:13:12.930Z,96059.34
2024-02-28T16:14:25.369Z,96062.00
2024-02-28T16:15:37.189Z,96062.00
2024-02-28T16:16:50.047Z,96058.88
2024-02-28T16:18:02.679Z,96059.41
2024-02-28T16:19:19.226Z,96065.25
2024-02-28T16:20:38.016Z,96067.41
2024-02-28T16:21:51.436Z,96063.81
2024-02-28T16:23:05.276Z,96065.25
2024-02-28T16:24:17.089Z,96068.41
2024-02-28T16:25:30.585Z,96065.03
2024-02-28T16:26:42.297Z,96064.06
2024-02-28T16:27:53.966Z,96072.81
2024-02-28T16:29:05.607Z,96073.09
2024-02-28T16:30:17.392Z,96068.97
2024-02-28T16:31:29.617Z,96074.34
2024-02-28T16:32:41.239Z,96079.97
2024-02-28T16:33:52.937Z,96083.38
2024-02-28T16:35:05.648Z,96078.75
2024-02-28T16:36:18.117Z,96085.31
2024-02-28T16:37:29.783Z,96082.16
2024-02-28T16:38:41.450Z,96087.50
2024-02-28T16:39:53.298Z,96077.75
2024-02-28T16:41:04.990Z,96088.94
2024-02-28T16:42:16.576Z,96088.47
2024-02-28T16:43:28.266Z,96090.41
2024-02-28T16:44:39.865Z,96096.50
2024-02-28T16:45:53.378Z,96092.38
2024-02-28T16:47:07.215Z,96095.03
2024-02-28T16:48:18.931Z,96096.03
2024-02-28T16:49:30.513Z,96094.81
2024-02-28T16:50:42.282Z,96093.59
2024-02-28T16:51:53.904Z,96092.38
2024-02-28T16:53:05.900Z,96090.47
2024-02-28T16:54:19.681Z,96090.47
2024-02-28T16:55:31.434Z,96094.84
2024-02-28T16:56:43.022Z,96092.16
2024-02-28T16:57:54.698Z,96089.75
2024-02-28T16:59:07.390Z,96091.69
2024-02-28T17:00:20.629Z,96094.84
2024-02-28T17:01:32.383Z,96088.75
2024-02-28T17:02:44.681Z,96089.97
2024-02-28T17:03:56.528Z,96092.41
2024-02-28T17:05:09.434Z,96097.50
2024-02-28T17:06:21.766Z,96095.34
2024-02-28T17:07:33.404Z,96096.78
2024-02-28T17:08:45.349Z,96097.53
2024-02-28T17:09:57.072Z,96098.25
2024-02-28T17:11:08.962Z,96098.72
2024-02-28T17:12:20.725Z,96096.03
2024-02-28T17:13:33.125Z,96097.25
2024-02-28T17:14:44.825Z,96103.81
2024-02-28T17:16:03.403Z,96093.63
2024-02-28T17:17:16.021Z,96096.75
2024-02-28T17:18:27.699Z,96098.00
2024-02-28T17:19:39.855Z,96095.31
2024-02-28T17:20:51.449Z,96086.34
2024-02-28T17:22:03.161Z,96097.06
2024-02-28T17:23:14.919Z,96096.78
2024-02-28T17:24:26.607Z,96098.25
2024-02-28T17:25:38.227Z,96095.81
2024-02-28T17:26:49.783Z,96101.41
2024-02-28T17:28:02.740Z,96103.84
2024-02-28T17:29:14.465Z,96102.88
2024-02-28T17:30:26.164Z,96104.06
2024-02-28T17:31:38.115Z,96105.53